Time;durP1;ratioP1;P1;durP2;ratioP2;P2;SDS_P1;SDS_P2;PMS_P1;PMS_P2;Temp;Humidity;BMP_temperature;BMP_pressure;BME280_temperature;BME280_humidity;BME280_pressure;Samples;Min_cycle;Max_cycle;Signal;HPM_P1;HPM_P2
2021/03/13 00:09:59;;;;;;;2.25;0.80;;;7.20;99.90;;;;;;6731367;88;20217;-77
2021/03/13 00:20:00;;;;;;;3.87;0.95;;;7.20;99.90;;;;;;6745042;88;20243;-77
2021/03/13 00:30:01;;;;;;;4.80;1.17;;;7.20;99.90;;;;;;6732416;88;20166;-77
2021/03/13 00:40:04;;;;;;;4.93;0.95;;;7.30;99.90;;;;;;6728510;88;21004;-78
2021/03/13 00:50:06;;;;;;;4.55;0.90;;;7.20;99.90;;;;;;6731367;88;20222;-79
2021/03/13 01:00:13;;;;;;;6.40;1.20;;;7.00;99.90;;;;;;6725317;88;20375;-78
2021/03/13 01:10:16;;;;;;;1.47;0.77;;;7.00;99.90;;;;;;6714010;88;20239;-78
2021/03/13 01:20:18;;;;;;;1.85;0.80;;;7.00;99.90;;;;;;6730618;88;20214;-78
2021/03/13 01:30:21;;;;;;;2.25;1.05;;;7.10;99.90;;;;;;6734876;88;20167;-79
2021/03/13 01:40:22;;;;;;;3.37;0.80;;;7.10;99.90;;;;;;6734820;88;20165;-79
2021/03/13 01:50:22;;;;;;;4.47;0.98;;;7.20;99.90;;;;;;6734779;88;20158;-78
2021/03/13 02:00:24;;;;;;;1.20;0.50;;;7.20;99.90;;;;;;6731133;88;20791;-79
2021/03/13 02:10:35;;;;;;;3.03;0.57;;;7.20;99.90;;;;;;6730491;88;20554;-78
2021/03/13 02:21:01;;;;;;;1.20;0.40;;;7.30;99.90;;;;;;6734116;88;20836;-78
2021/03/13 02:31:02;;;;;;;1.55;0.50;;;7.30;99.90;;;;;;6733952;88;20192;-78
2021/03/13 02:41:11;;;;;;;2.40;0.50;;;7.20;99.90;;;;;;6733851;88;20174;-78
2021/03/13 02:51:15;;;;;;;1.70;0.45;;;7.20;99.90;;;;;;6733773;88;20237;-78
2021/03/13 03:01:19;;;;;;;1.10;0.40;;;7.20;99.90;;;;;;6735495;88;20158;-78
2021/03/13 03:11:22;;;;;;;2.58;0.45;;;7.20;99.90;;;;;;6733500;88;20220;-78
2021/03/13 03:21:23;;;;;;;1.98;0.40;;;7.20;99.90;;;;;;6742592;88;20192;-79
2021/03/13 03:31:24;;;;;;;0.50;0.30;;;7.20;99.90;;;;;;6739133;88;20204;-78
2021/03/13 03:41:28;;;;;;;0.50;0.20;;;7.30;99.90;;;;;;6750184;88;20191;-78
2021/03/13 03:51:30;;;;;;;1.55;0.20;;;7.30;99.90;;;;;;6749148;88;20197;-78
2021/03/13 04:01:31;;;;;;;1.65;0.30;;;7.40;99.90;;;;;;6737118;88;20229;-79
2021/03/13 04:11:32;;;;;;;0.40;0.20;;;7.40;99.90;;;;;;6729527;88;20203;-78
2021/03/13 04:21:33;;;;;;;1.08;0.28;;;7.50;99.90;;;;;;6741252;88;20208;-78
2021/03/13 04:31:35;;;;;;;2.92;0.35;;;7.60;99.90;;;;;;6736411;88;21180;-79
2021/03/13 04:41:36;;;;;;;2.80;0.32;;;7.80;99.90;;;;;;6731644;88;20234;-78
2021/03/13 04:51:39;;;;;;;0.82;0.20;;;7.80;99.90;;;;;;6743101;88;20188;-78
2021/03/13 05:01:39;;;;;;;1.90;0.40;;;7.80;99.90;;;;;;6745077;88;20198;-78
2021/03/13 05:11:40;;;;;;;2.60;0.30;;;7.90;99.90;;;;;;6745962;88;20690;-78
2021/03/13 05:21:40;;;;;;;0.73;0.20;;;8.00;99.90;;;;;;6727621;88;20365;-78
2021/03/13 05:31:41;;;;;;;1.45;0.30;;;8.10;99.90;;;;;;6735534;88;20323;-78
2021/03/13 05:41:42;;;;;;;1.98;0.30;;;8.20;99.90;;;;;;6724053;88;20285;-78
2021/03/13 05:51:45;;;;;;;3.50;0.40;;;8.40;99.90;;;;;;6698098;88;20200;-79
2021/03/13 06:01:46;;;;;;;1.17;0.30;;;8.40;99.90;;;;;;6741157;88;20673;-78
2021/03/13 06:11:46;;;;;;;3.33;0.40;;;8.40;99.90;;;;;;6751206;88;20165;-78
2021/03/13 06:21:47;;;;;;;1.25;0.35;;;8.40;99.90;;;;;;6737249;88;20195;-78
2021/03/13 06:32:07;;;;;;;0.95;0.35;;;8.40;99.90;;;;;;6733508;88;20181;-77
2021/03/13 06:42:25;;;;;;;0.55;0.20;;;8.40;99.90;;;;;;6727834;88;20181;-78
2021/03/13 06:52:26;;;;;;;1.15;0.20;;;8.30;99.90;;;;;;6718547;88;20785;-78
2021/03/13 07:02:27;;;;;;;0.57;0.20;;;8.40;99.90;;;;;;6733179;88;20275;-78
2021/03/13 07:12:41;;;;;;;2.03;0.30;;;8.50;99.90;;;;;;6729272;88;20201;-78
2021/03/13 07:22:43;;;;;;;1.95;0.30;;;8.60;99.90;;;;;;6696977;88;20198;-77
2021/03/13 07:32:50;;;;;;;0.62;0.30;;;8.60;99.90;;;;;;6724742;88;20194;-78
2021/03/13 07:42:51;;;;;;;1.48;0.20;;;8.70;99.90;;;;;;6728533;88;20214;-78
2021/03/13 07:52:51;;;;;;;0.98;0.20;;;8.80;99.90;;;;;;6721753;88;20210;-78
2021/03/13 08:02:52;;;;;;;0.82;0.20;;;8.80;99.90;;;;;;6722745;88;20182;-78
2021/03/13 08:12:53;;;;;;;0.87;0.20;;;9.00;99.90;;;;;;6727600;88;20197;-78
2021/03/13 08:23:11;;;;;;;1.70;0.13;;;8.80;99.90;;;;;;6731342;88;20497;-77
2021/03/13 08:33:12;;;;;;;0.22;0.10;;;8.00;99.90;;;;;;6712181;88;20592;-77
2021/03/13 08:43:33;;;;;;;1.23;0.57;;;7.70;99.90;;;;;;6707856;88;20266;-76
2021/03/13 08:53:34;;;;;;;1.37;0.50;;;7.60;99.90;;;;;;6712780;88;20187;-77
2021/03/13 09:03:44;;;;;;;1.92;0.37;;;7.40;99.90;;;;;;6714306;88;20251;-77
2021/03/13 09:13:57;;;;;;;1.55;0.50;;;7.50;99.90;;;;;;6722084;88;20240;-77
2021/03/13 09:24:02;;;;;;;5.37;0.68;;;7.50;99.90;;;;;;6718652;88;20195;-77
2021/03/13 09:34:17;;;;;;;2.17;0.40;;;7.50;99.90;;;;;;6723165;88;20194;-77
2021/03/13 09:44:40;;;;;;;3.40;0.55;;;7.60;99.90;;;;;;6723314;88;20178;-77
2021/03/13 09:54:41;;;;;;;1.65;0.65;;;7.40;99.90;;;;;;6724949;88;20533;-78
2021/03/13 10:04:43;;;;;;;3.50;0.80;;;7.30;99.90;;;;;;6721947;88;20216;-77
2021/03/13 10:14:43;;;;;;;3.42;0.60;;;7.30;99.90;;;;;;6712394;88;20190;-78
2021/03/13 10:24:50;;;;;;;2.05;0.40;;;7.30;99.90;;;;;;6725981;88;20729;-78
2021/03/13 10:35:13;;;;;;;4.53;0.65;;;7.40;99.90;;;;;;6726201;88;20210;-76
2021/03/13 10:45:17;;;;;;;2.95;0.65;;;7.50;99.90;;;;;;6721171;88;20243;-78
2021/03/13 10:55:37;;;;;;;5.28;0.93;;;8.10;99.90;;;;;;6716890;88;20175;-77
2021/03/13 11:05:37;;;;;;;6.15;0.62;;;8.70;99.90;;;;;;6720952;88;20201;-77
2021/03/13 11:15:38;;;;;;;5.53;0.95;;;9.20;99.90;;;;;;6719032;88;20985;-77
2021/03/13 11:25:39;;;;;;;5.78;1.05;;;10.30;99.90;;;;;;6711920;88;20189;-77
2021/03/13 11:35:40;;;;;;;5.10;1.10;;;10.80;99.90;;;;;;6715541;88;20218;-77
2021/03/13 11:45:41;;;;;;;3.10;0.60;;;11.10;99.90;;;;;;6710305;88;20202;-76
2021/03/13 11:55:42;;;;;;;5.82;0.80;;;10.80;99.90;;;;;;6710066;88;20225;-78
2021/03/13 12:05:42;;;;;;;4.93;0.93;;;10.30;99.90;;;;;;6719145;88;20200;-78
2021/03/13 12:15:43;;;;;;;4.78;1.00;;;11.30;98.10;;;;;;6730286;88;20175;-77
2021/03/13 12:25:43;;;;;;;7.60;1.10;;;10.50;99.90;;;;;;6721106;88;20158;-78
2021/03/13 12:35:44;;;;;;;4.32;0.98;;;10.50;99.90;;;;;;6721432;88;20190;-78
2021/03/13 12:45:45;;;;;;;3.90;0.60;;;12.00;97.10;;;;;;6720527;88;20158;-78
2021/03/13 13:05:49;;;;;;;6.45;1.08;;;11.80;96.00;;;;;;6734444;88;20221;-79
2021/03/13 13:15:52;;;;;;;9.63;0.95;;;11.90;95.00;;;;;;6734428;88;20256;-78
2021/03/13 13:25:52;;;;;;;5.10;1.00;;;11.40;96.20;;;;;;6723441;88;20266;-79
2021/03/13 13:35:53;;;;;;;4.53;0.88;;;11.70;95.70;;;;;;6721497;88;20217;-79
2021/03/13 13:45:54;;;;;;;5.95;1.05;;;11.70;95.50;;;;;;6719567;88;20178;-78
2021/03/13 13:55:54;;;;;;;5.82;0.80;;;11.30;94.00;;;;;;6724576;88;20202;-78
2021/03/13 14:05:55;;;;;;;2.53;0.43;;;10.50;95.90;;;;;;6737486;88;20215;-79
2021/03/13 14:16:17;;;;;;;2.37;0.40;;;6.70;99.90;;;;;;6763658;77;20179;-79
2021/03/13 14:26:17;;;;;;;1.77;0.40;;;6.60;99.90;;;;;;6744522;88;20179;-82
2021/03/13 14:36:18;;;;;;;9.68;1.00;;;8.00;99.90;;;;;;6743563;88;20217;-78
2021/03/13 14:46:19;;;;;;;3.07;0.60;;;9.00;99.90;;;;;;6735662;88;20205;-81
2021/03/13 14:56:20;;;;;;;8.00;1.10;;;10.40;99.90;;;;;;6742803;88;20513;-81
2021/03/13 15:06:21;;;;;;;3.20;0.85;;;11.20;99.90;;;;;;6715325;88;20201;-81
2021/03/13 15:16:22;;;;;;;5.68;0.80;;;11.00;99.90;;;;;;6717186;88;20843;-81
2021/03/13 15:26:22;;;;;;;4.70;0.88;;;10.90;99.90;;;;;;6733138;88;20200;-82
2021/03/13 15:36:24;;;;;;;5.53;0.88;;;11.30;98.90;;;;;;6742693;88;20240;-81
2021/03/13 15:46:24;;;;;;;3.53;0.80;;;11.10;93.70;;;;;;6723255;88;20212;-81
2021/03/13 15:56:25;;;;;;;6.03;1.02;;;10.70;94.10;;;;;;6691153;89;20179;-78
2021/03/13 16:06:25;;;;;;;5.32;0.68;;;10.50;98.40;;;;;;6701931;88;20310;-78
2021/03/13 16:16:26;;;;;;;3.20;1.10;;;10.10;97.20;;;;;;6730259;88;20194;-79
2021/03/13 16:36:31;;;;;;;4.12;0.70;;;9.20;99.90;;;;;;6723629;88;20194;-80
2021/03/13 16:46:33;;;;;;;4.30;0.73;;;9.00;99.90;;;;;;6718521;88;20211;-81
2021/03/13 17:07:17;;;;;;;3.78;0.60;;;8.80;99.90;;;;;;6740338;77;20282;-79
2021/03/13 17:17:59;;;;;;;2.65;0.70;;;8.70;99.90;;;;;;6718083;78;20185;-80
2021/03/13 17:28:00;;;;;;;7.50;0.90;;;8.30;99.90;;;;;;6732285;88;20751;-79
2021/03/13 17:38:00;;;;;;;3.78;0.80;;;8.00;99.90;;;;;;6724125;88;20172;-78
2021/03/13 18:18:10;;;;;;;3.87;1.00;;;7.30;99.90;;;;;;6736267;77;20223;-78
2021/03/13 18:28:11;;;;;;;3.83;1.00;;;7.20;99.90;;;;;;6714818;88;20177;-79
2021/03/13 18:38:12;;;;;;;4.15;0.95;;;7.10;99.90;;;;;;6717498;88;20206;-79
2021/03/13 18:48:13;;;;;;;4.87;0.80;;;7.20;99.90;;;;;;6714167;88;20193;-78
2021/03/13 19:08:17;;;;;;;9.00;0.95;;;7.30;99.90;;;;;;6733498;88;20207;-79
2021/03/13 19:18:17;;;;;;;9.15;1.30;;;7.00;99.90;;;;;;6732604;88;20583;-82
2021/03/13 19:28:18;;;;;;;3.47;0.80;;;7.00;99.90;;;;;;6733692;88;20180;-82
2021/03/13 19:38:20;;;;;;;6.03;0.90;;;6.80;99.90;;;;;;6733616;88;20464;-82
2021/03/13 19:48:20;;;;;;;6.12;0.95;;;6.70;99.90;;;;;;6732675;88;20318;-79
2021/03/13 19:58:21;;;;;;;8.18;1.20;;;7.00;99.90;;;;;;6732351;88;20154;-80
2021/03/13 20:08:22;;;;;;;8.35;1.35;;;6.90;99.90;;;;;;6732248;88;20700;-81
2021/03/13 20:18:22;;;;;;;5.68;0.70;;;6.70;99.90;;;;;;6731078;88;20495;-80
2021/03/13 20:28:23;;;;;;;8.43;1.00;;;6.70;99.90;;;;;;6728566;88;20193;-81
2021/03/13 20:38:23;;;;;;;3.78;1.00;;;6.50;99.90;;;;;;6730669;88;20319;-81
2021/03/13 20:48:24;;;;;;;6.75;0.90;;;6.40;99.90;;;;;;6730532;88;20201;-82
2021/03/13 20:58:24;;;;;;;4.60;0.60;;;6.40;99.90;;;;;;6732062;88;20205;-81
2021/03/13 21:08:25;;;;;;;1.40;0.47;;;5.20;99.90;;;;;;6735005;88;20200;-80
2021/03/13 21:18:26;;;;;;;1.75;0.40;;;4.50;99.90;;;;;;6734286;88;21580;-79
2021/03/13 21:28:26;;;;;;;1.73;0.40;;;3.90;99.90;;;;;;6734118;88;20209;-79
2021/03/13 21:38:28;;;;;;;2.35;0.40;;;3.80;99.90;;;;;;6734561;88;20146;-80
2021/03/13 21:48:28;;;;;;;2.67;0.62;;;3.70;99.90;;;;;;6735115;88;20950;-81
2021/03/13 21:58:29;;;;;;;2.87;0.68;;;3.90;99.90;;;;;;6734515;88;20170;-82
2021/03/13 22:08:29;;;;;;;3.08;0.52;;;3.90;99.90;;;;;;6734274;88;20142;-81
2021/03/13 22:18:31;;;;;;;3.55;0.65;;;4.00;99.90;;;;;;6734545;88;20189;-82
2021/03/13 22:28:31;;;;;;;4.50;1.00;;;3.90;99.90;;;;;;6683926;88;20936;-82
2021/03/13 22:38:32;;;;;;;4.55;0.82;;;3.90;99.90;;;;;;6696992;88;20217;-81
2021/03/13 22:48:33;;;;;;;2.20;0.50;;;3.90;99.90;;;;;;6698071;88;20179;-81
2021/03/13 22:58:33;;;;;;;3.37;0.60;;;4.00;99.90;;;;;;6726667;88;20265;-82
2021/03/13 23:08:35;;;;;;;2.10;0.40;;;3.90;99.90;;;;;;6715084;88;20182;-82
2021/03/13 23:18:36;;;;;;;3.85;0.45;;;3.90;99.90;;;;;;6715128;88;20181;-80
2021/03/13 23:28:36;;;;;;;2.55;0.60;;;3.90;99.90;;;;;;6714820;88;20179;-82
2021/03/13 23:38:37;;;;;;;3.63;1.03;;;4.00;99.90;;;;;;6729885;88;20194;-81
2021/03/13 23:48:38;;;;;;;2.97;0.50;;;4.10;99.90;;;;;;6733646;88;20467;-81
2021/03/13 23:58:38;;;;;;;2.60;0.60;;;4.20;99.90;;;;;;6714285;88;20191;-81
